Beaver Dam, Wisconsin
Current Conditions -  °F | °C
As of 5:15 AM on Saturday 25 Oct 2014 (Local Time) from KUNU Reporting Station
Moderate Fog Moderate Fog  
Wind Chill: 11°   Ceiling: 200
Heat Index: 11°   Visibility: 0.25mi
Dew Point: 11°   Wind: 8mph
Humidity: 100%   Direction: 240°WSW
Pressure: 29.89"   Gusts: NA
Location:  43.46°N, 88.83°W
Report Text: KUNU 251015Z AUTO 24007KT 1/4SM FG VV002 11/11 A2989 RMK AO2 T01050105
Loading
Personal Weather Stations






























Interactive Weather Map
Tropical Storm Tracking
New forecast layout! Learn more

10-Day Weather Forecast

Advertisements
Track Severe Weather on mobile